sensor_id;sensor_type;location;lat;lon;timestamp;temperature;humidity
48806;DHT22;34625;47.176;27.548;2022-08-21T00:00:16;28.60;60.70
48806;DHT22;34625;47.176;27.548;2022-08-21T00:03:03;28.60;60.70
48806;DHT22;34625;47.176;27.548;2022-08-21T00:05:32;28.70;60.70
48806;DHT22;34625;47.176;27.548;2022-08-21T00:07:58;28.60;60.70
48806;DHT22;34625;47.176;27.548;2022-08-21T00:10:25;28.80;60.60
48806;DHT22;34625;47.176;27.548;2022-08-21T00:12:51;28.60;60.60
48806;DHT22;34625;47.176;27.548;2022-08-21T00:15:22;28.70;60.60
48806;DHT22;34625;47.176;27.548;2022-08-21T00:17:48;28.70;60.60
48806;DHT22;34625;47.176;27.548;2022-08-21T00:20:16;28.60;60.60
48806;DHT22;34625;47.176;27.548;2022-08-21T00:22:43;28.70;60.50
48806;DHT22;34625;47.176;27.548;2022-08-21T00:25:10;28.60;60.60
48806;DHT22;34625;47.176;27.548;2022-08-21T00:27:36;28.50;60.60
48806;DHT22;34625;47.176;27.548;2022-08-21T00:30:04;28.50;60.60
48806;DHT22;34625;47.176;27.548;2022-08-21T00:32:31;28.50;60.60
48806;DHT22;34625;47.176;27.548;2022-08-21T00:34:57;28.40;60.70
48806;DHT22;34625;47.176;27.548;2022-08-21T00:37:24;28.40;60.90
48806;DHT22;34625;47.176;27.548;2022-08-21T00:39:50;28.50;60.90
48806;DHT22;34625;47.176;27.548;2022-08-21T00:42:16;28.40;60.90
48806;DHT22;34625;47.176;27.548;2022-08-21T00:44:47;28.60;60.90
48806;DHT22;34625;47.176;27.548;2022-08-21T00:47:14;28.50;60.90
48806;DHT22;34625;47.176;27.548;2022-08-21T00:49:40;28.50;60.80
48806;DHT22;34625;47.176;27.548;2022-08-21T00:52:10;28.50;60.70
48806;DHT22;34625;47.176;27.548;2022-08-21T00:54:39;28.50;60.70
48806;DHT22;34625;47.176;27.548;2022-08-21T00:57:28;28.70;60.80
48806;DHT22;34625;47.176;27.548;2022-08-21T00:59:57;28.60;60.80
48806;DHT22;34625;47.176;27.548;2022-08-21T01:02:24;28.60;60.80
48806;DHT22;34625;47.176;27.548;2022-08-21T01:04:51;28.70;60.80
48806;DHT22;34625;47.176;27.548;2022-08-21T01:07:18;28.70;60.80
48806;DHT22;34625;47.176;27.548;2022-08-21T01:09:48;28.60;60.70
48806;DHT22;34625;47.176;27.548;2022-08-21T01:12:15;28.70;60.80
48806;DHT22;34625;47.176;27.548;2022-08-21T01:14:41;28.60;60.80
48806;DHT22;34625;47.176;27.548;2022-08-21T01:17:15;28.50;60.80
48806;DHT22;34625;47.176;27.548;2022-08-21T01:19:42;28.50;60.80
48806;DHT22;34625;47.176;27.548;2022-08-21T01:22:09;28.60;60.90
48806;DHT22;34625;47.176;27.548;2022-08-21T01:24:35;28.50;60.90
48806;DHT22;34625;47.176;27.548;2022-08-21T01:27:02;28.60;60.90
48806;DHT22;34625;47.176;27.548;2022-08-21T01:29:47;28.40;61.00
48806;DHT22;34625;47.176;27.548;2022-08-21T01:32:17;28.50;61.00
48806;DHT22;34625;47.176;27.548;2022-08-21T01:34:45;28.50;61.10
48806;DHT22;34625;47.176;27.548;2022-08-21T01:37:12;28.30;61.10
48806;DHT22;34625;47.176;27.548;2022-08-21T01:39:39;28.30;61.10
48806;DHT22;34625;47.176;27.548;2022-08-21T01:42:06;28.40;61.20
48806;DHT22;34625;47.176;27.548;2022-08-21T01:44:32;28.20;61.30
48806;DHT22;34625;47.176;27.548;2022-08-21T01:47:02;28.20;61.30
48806;DHT22;34625;47.176;27.548;2022-08-21T01:49:28;28.40;61.30
48806;DHT22;34625;47.176;27.548;2022-08-21T01:51:54;28.30;61.30
48806;DHT22;34625;47.176;27.548;2022-08-21T01:54:21;28.30;61.40
48806;DHT22;34625;47.176;27.548;2022-08-21T01:56:50;28.30;61.30
48806;DHT22;34625;47.176;27.548;2022-08-21T01:59:17;28.50;61.20
48806;DHT22;34625;47.176;27.548;2022-08-21T02:01:43;28.40;61.20
48806;DHT22;34625;47.176;27.548;2022-08-21T02:04:10;28.40;61.20
48806;DHT22;34625;47.176;27.548;2022-08-21T02:06:36;28.50;61.20
48806;DHT22;34625;47.176;27.548;2022-08-21T02:09:05;28.40;61.30
48806;DHT22;34625;47.176;27.548;2022-08-21T02:11:32;28.40;61.30
48806;DHT22;34625;47.176;27.548;2022-08-21T02:13:58;28.40;61.30
48806;DHT22;34625;47.176;27.548;2022-08-21T02:16:24;28.40;61.40
48806;DHT22;34625;47.176;27.548;2022-08-21T02:18:50;28.40;61.50
48806;DHT22;34625;47.176;27.548;2022-08-21T02:21:16;28.40;61.40
48806;DHT22;34625;47.176;27.548;2022-08-21T02:23:43;28.30;61.40
48806;DHT22;34625;47.176;27.548;2022-08-21T02:26:09;28.30;61.50
48806;DHT22;34625;47.176;27.548;2022-08-21T02:28:36;28.30;61.50
48806;DHT22;34625;47.176;27.548;2022-08-21T02:31:04;28.10;61.80
48806;DHT22;34625;47.176;27.548;2022-08-21T02:33:31;28.10;61.90
48806;DHT22;34625;47.176;27.548;2022-08-21T02:35:57;28.20;62.00
48806;DHT22;34625;47.176;27.548;2022-08-21T02:38:27;28.20;62.10
48806;DHT22;34625;47.176;27.548;2022-08-21T02:40:54;28.20;62.00
48806;DHT22;34625;47.176;27.548;2022-08-21T02:43:22;28.30;62.00
48806;DHT22;34625;47.176;27.548;2022-08-21T02:45:50;28.10;61.90
48806;DHT22;34625;47.176;27.548;2022-08-21T02:48:20;28.20;61.90
48806;DHT22;34625;47.176;27.548;2022-08-21T02:50:51;28.20;61.90
48806;DHT22;34625;47.176;27.548;2022-08-21T02:53:18;28.20;62.00
48806;DHT22;34625;47.176;27.548;2022-08-21T02:55:46;28.10;62.00
48806;DHT22;34625;47.176;27.548;2022-08-21T02:58:15;28.20;62.00
48806;DHT22;34625;47.176;27.548;2022-08-21T03:00:41;28.30;61.90
48806;DHT22;34625;47.176;27.548;2022-08-21T03:03:07;28.30;61.80
48806;DHT22;34625;47.176;27.548;2022-08-21T03:05:36;28.30;61.40
48806;DHT22;34625;47.176;27.548;2022-08-21T03:08:05;28.30;61.30
48806;DHT22;34625;47.176;27.548;2022-08-21T03:10:33;28.20;61.30
48806;DHT22;34625;47.176;27.548;2022-08-21T03:12:59;28.30;61.30
48806;DHT22;34625;47.176;27.548;2022-08-21T03:15:26;28.30;61.30
48806;DHT22;34625;47.176;27.548;2022-08-21T03:17:52;28.30;61.30
48806;DHT22;34625;47.176;27.548;2022-08-21T03:20:26;28.40;61.30
48806;DHT22;34625;47.176;27.548;2022-08-21T03:22:54;28.40;61.30
48806;DHT22;34625;47.176;27.548;2022-08-21T03:25:22;28.20;61.30
48806;DHT22;34625;47.176;27.548;2022-08-21T03:27:49;28.20;61.30
48806;DHT22;34625;47.176;27.548;2022-08-21T03:30:16;28.50;61.20
48806;DHT22;34625;47.176;27.548;2022-08-21T03:32:43;28.30;61.20
48806;DHT22;34625;47.176;27.548;2022-08-21T03:35:09;28.30;61.20
48806;DHT22;34625;47.176;27.548;2022-08-21T03:37:35;28.30;61.20
48806;DHT22;34625;47.176;27.548;2022-08-21T03:40:07;28.30;61.20
48806;DHT22;34625;47.176;27.548;2022-08-21T03:42:34;28.40;61.30
48806;DHT22;34625;47.176;27.548;2022-08-21T03:45:00;28.30;61.20
48806;DHT22;34625;47.176;27.548;2022-08-21T03:47:27;28.20;61.30
48806;DHT22;34625;47.176;27.548;2022-08-21T03:49:53;28.30;61.40
48806;DHT22;34625;47.176;27.548;2022-08-21T03:52:19;28.30;61.30
48806;DHT22;34625;47.176;27.548;2022-08-21T03:54:45;28.20;61.30
48806;DHT22;34625;47.176;27.548;2022-08-21T03:57:12;28.20;61.40
48806;DHT22;34625;47.176;27.548;2022-08-21T03:59:38;28.20;61.40
48806;DHT22;34625;47.176;27.548;2022-08-21T04:02:06;28.30;61.40
48806;DHT22;34625;47.176;27.548;2022-08-21T04:04:33;28.20;61.30
48806;DHT22;34625;47.176;27.548;2022-08-21T04:06:59;28.20;61.40
48806;DHT22;34625;47.176;27.548;2022-08-21T04:09:26;28.30;61.40
48806;DHT22;34625;47.176;27.548;2022-08-21T04:11:52;28.20;61.30
48806;DHT22;34625;47.176;27.548;2022-08-21T04:14:19;28.40;61.30
48806;DHT22;34625;47.176;27.548;2022-08-21T04:16:45;28.30;61.30
48806;DHT22;34625;47.176;27.548;2022-08-21T04:19:12;28.40;61.30
48806;DHT22;34625;47.176;27.548;2022-08-21T04:21:42;28.40;61.30
48806;DHT22;34625;47.176;27.548;2022-08-21T04:24:09;28.30;61.30
48806;DHT22;34625;47.176;27.548;2022-08-21T04:26:36;28.40;61.30
48806;DHT22;34625;47.176;27.548;2022-08-21T04:29:03;28.40;61.20
48806;DHT22;34625;47.176;27.548;2022-08-21T04:31:33;28.30;61.10
48806;DHT22;34625;47.176;27.548;2022-08-21T04:33:59;28.40;61.00
48806;DHT22;34625;47.176;27.548;2022-08-21T04:36:26;28.40;61.00
48806;DHT22;34625;47.176;27.548;2022-08-21T04:38:52;28.30;61.10
48806;DHT22;34625;47.176;27.548;2022-08-21T04:41:18;28.40;61.10
48806;DHT22;34625;47.176;27.548;2022-08-21T04:43:44;28.30;61.10
48806;DHT22;34625;47.176;27.548;2022-08-21T04:46:10;28.30;61.10
48806;DHT22;34625;47.176;27.548;2022-08-21T04:48:36;28.50;61.10
48806;DHT22;34625;47.176;27.548;2022-08-21T04:51:16;28.30;61.00
48806;DHT22;34625;47.176;27.548;2022-08-21T04:53:55;28.30;61.00
48806;DHT22;34625;47.176;27.548;2022-08-21T04:56:29;28.20;61.00
48806;DHT22;34625;47.176;27.548;2022-08-21T04:58:59;28.20;61.10
48806;DHT22;34625;47.176;27.548;2022-08-21T05:01:31;28.20;61.20
48806;DHT22;34625;47.176;27.548;2022-08-21T05:03:59;28.20;61.10
48806;DHT22;34625;47.176;27.548;2022-08-21T05:06:28;28.20;61.10
48806;DHT22;34625;47.176;27.548;2022-08-21T05:08:56;28.20;61.10
48806;DHT22;34625;47.176;27.548;2022-08-21T05:11:22;28.30;61.10
48806;DHT22;34625;47.176;27.548;2022-08-21T05:13:49;28.40;61.10
48806;DHT22;34625;47.176;27.548;2022-08-21T05:16:16;28.30;61.10
48806;DHT22;34625;47.176;27.548;2022-08-21T05:18:42;28.30;61.10
48806;DHT22;34625;47.176;27.548;2022-08-21T05:21:08;28.30;61.00
48806;DHT22;34625;47.176;27.548;2022-08-21T05:23:35;28.40;61.00
48806;DHT22;34625;47.176;27.548;2022-08-21T05:26:03;28.40;61.10
48806;DHT22;34625;47.176;27.548;2022-08-21T05:28:31;28.40;61.00
48806;DHT22;34625;47.176;27.548;2022-08-21T05:30:57;28.50;61.00
48806;DHT22;34625;47.176;27.548;2022-08-21T05:33:24;28.40;60.90
48806;DHT22;34625;47.176;27.548;2022-08-21T05:35:51;28.30;61.00
48806;DHT22;34625;47.176;27.548;2022-08-21T05:38:18;28.40;61.00
48806;DHT22;34625;47.176;27.548;2022-08-21T05:40:45;28.40;60.90
48806;DHT22;34625;47.176;27.548;2022-08-21T05:43:11;28.40;60.90
48806;DHT22;34625;47.176;27.548;2022-08-21T05:45:38;28.40;60.90
48806;DHT22;34625;47.176;27.548;2022-08-21T05:48:13;28.30;60.90
48806;DHT22;34625;47.176;27.548;2022-08-21T05:50:40;28.40;60.90
48806;DHT22;34625;47.176;27.548;2022-08-21T05:53:06;28.30;60.90
48806;DHT22;34625;47.176;27.548;2022-08-21T05:55:32;28.40;60.90
48806;DHT22;34625;47.176;27.548;2022-08-21T05:57:59;28.30;60.90
48806;DHT22;34625;47.176;27.548;2022-08-21T06:00:25;28.30;60.90
48806;DHT22;34625;47.176;27.548;2022-08-21T06:02:51;28.30;60.90
48806;DHT22;34625;47.176;27.548;2022-08-21T06:05:17;28.40;61.00
48806;DHT22;34625;47.176;27.548;2022-08-21T06:07:44;28.30;61.00
48806;DHT22;34625;47.176;27.548;2022-08-21T06:10:10;28.20;61.00
48806;DHT22;34625;47.176;27.548;2022-08-21T06:12:36;28.40;61.00
48806;DHT22;34625;47.176;27.548;2022-08-21T06:15:03;28.30;61.00
48806;DHT22;34625;47.176;27.548;2022-08-21T06:17:29;28.40;61.00
48806;DHT22;34625;47.176;27.548;2022-08-21T06:19:55;28.30;61.00
48806;DHT22;34625;47.176;27.548;2022-08-21T06:22:21;28.30;61.00
48806;DHT22;34625;47.176;27.548;2022-08-21T06:24:47;28.30;60.90
48806;DHT22;34625;47.176;27.548;2022-08-21T06:27:14;28.50;60.90
48806;DHT22;34625;47.176;27.548;2022-08-21T06:29:41;28.40;60.90
48806;DHT22;34625;47.176;27.548;2022-08-21T06:32:11;28.40;60.90
48806;DHT22;34625;47.176;27.548;2022-08-21T06:34:39;28.50;60.90
48806;DHT22;34625;47.176;27.548;2022-08-21T06:37:06;28.40;60.90
48806;DHT22;34625;47.176;27.548;2022-08-21T06:39:32;28.40;60.80
48806;DHT22;34625;47.176;27.548;2022-08-21T06:41:59;28.40;60.80
48806;DHT22;34625;47.176;27.548;2022-08-21T06:44:29;28.50;60.80
48806;DHT22;34625;47.176;27.548;2022-08-21T06:46:56;28.30;60.80
48806;DHT22;34625;47.176;27.548;2022-08-21T06:49:22;28.40;60.80
48806;DHT22;34625;47.176;27.548;2022-08-21T06:51:48;28.40;60.80
48806;DHT22;34625;47.176;27.548;2022-08-21T06:54:14;28.40;60.80
48806;DHT22;34625;47.176;27.548;2022-08-21T06:56:40;28.40;60.80
48806;DHT22;34625;47.176;27.548;2022-08-21T06:59:07;28.30;60.80
48806;DHT22;34625;47.176;27.548;2022-08-21T07:01:33;28.40;60.80
48806;DHT22;34625;47.176;27.548;2022-08-21T07:03:59;28.40;60.80
48806;DHT22;34625;47.176;27.548;2022-08-21T07:06:25;28.30;60.80
48806;DHT22;34625;47.176;27.548;2022-08-21T07:08:51;28.40;60.90
48806;DHT22;34625;47.176;27.548;2022-08-21T07:11:20;28.30;60.90
48806;DHT22;34625;47.176;27.548;2022-08-21T07:13:46;28.30;60.90
48806;DHT22;34625;47.176;27.548;2022-08-21T07:16:13;28.50;60.90
48806;DHT22;34625;47.176;27.548;2022-08-21T07:18:39;28.40;60.90
48806;DHT22;34625;47.176;27.548;2022-08-21T07:21:06;28.30;60.90
48806;DHT22;34625;47.176;27.548;2022-08-21T07:23:37;28.40;60.90
48806;DHT22;34625;47.176;27.548;2022-08-21T07:26:03;28.40;60.90
48806;DHT22;34625;47.176;27.548;2022-08-21T07:28:30;28.40;60.90
48806;DHT22;34625;47.176;27.548;2022-08-21T07:30:58;28.40;60.90
48806;DHT22;34625;47.176;27.548;2022-08-21T07:33:26;28.40;60.90
48806;DHT22;34625;47.176;27.548;2022-08-21T07:35:52;28.40;60.90
48806;DHT22;34625;47.176;27.548;2022-08-21T07:38:18;28.60;60.90
48806;DHT22;34625;47.176;27.548;2022-08-21T07:40:46;28.40;60.90
48806;DHT22;34625;47.176;27.548;2022-08-21T07:43:13;28.40;60.80
48806;DHT22;34625;47.176;27.548;2022-08-21T07:45:42;28.50;60.80
48806;DHT22;34625;47.176;27.548;2022-08-21T07:48:08;28.60;60.80
48806;DHT22;34625;47.176;27.548;2022-08-21T07:50:36;28.40;60.90
48806;DHT22;34625;47.176;27.548;2022-08-21T07:53:02;28.50;60.80
48806;DHT22;34625;47.176;27.548;2022-08-21T07:55:28;28.40;60.90
48806;DHT22;34625;47.176;27.548;2022-08-21T07:57:54;28.50;60.80
48806;DHT22;34625;47.176;27.548;2022-08-21T08:00:23;28.50;60.80
48806;DHT22;34625;47.176;27.548;2022-08-21T08:02:51;28.40;60.80
48806;DHT22;34625;47.176;27.548;2022-08-21T08:05:21;28.40;60.80
48806;DHT22;34625;47.176;27.548;2022-08-21T08:07:48;28.40;60.80
48806;DHT22;34625;47.176;27.548;2022-08-21T08:10:15;28.40;60.80
48806;DHT22;34625;47.176;27.548;2022-08-21T08:12:43;28.30;60.90
48806;DHT22;34625;47.176;27.548;2022-08-21T08:15:17;28.50;60.90
48806;DHT22;34625;47.176;27.548;2022-08-21T08:17:45;28.30;60.90
48806;DHT22;34625;47.176;27.548;2022-08-21T08:20:13;28.40;60.90
48806;DHT22;34625;47.176;27.548;2022-08-21T08:22:39;28.50;60.90
48806;DHT22;34625;47.176;27.548;2022-08-21T08:25:08;28.40;60.90
48806;DHT22;34625;47.176;27.548;2022-08-21T08:27:34;28.40;60.90
48806;DHT22;34625;47.176;27.548;2022-08-21T08:30:01;28.40;60.90
48806;DHT22;34625;47.176;27.548;2022-08-21T08:32:27;28.40;61.00
48806;DHT22;34625;47.176;27.548;2022-08-21T08:34:53;28.60;60.90
48806;DHT22;34625;47.176;27.548;2022-08-21T08:37:20;28.50;60.90
48806;DHT22;34625;47.176;27.548;2022-08-21T08:39:47;28.40;61.00
48806;DHT22;34625;47.176;27.548;2022-08-21T08:42:15;28.40;60.80
48806;DHT22;34625;47.176;27.548;2022-08-21T08:44:45;28.50;60.90
48806;DHT22;34625;47.176;27.548;2022-08-21T08:47:16;28.40;60.90
48806;DHT22;34625;47.176;27.548;2022-08-21T08:52:35;28.40;60.90
48806;DHT22;34625;47.176;27.548;2022-08-21T08:55:12;28.40;60.90
48806;DHT22;34625;47.176;27.548;2022-08-21T08:57:44;28.40;60.80
48806;DHT22;34625;47.176;27.548;2022-08-21T09:00:13;28.40;60.90
48806;DHT22;34625;47.176;27.548;2022-08-21T09:02:41;28.40;60.90
48806;DHT22;34625;47.176;27.548;2022-08-21T09:05:21;28.40;60.90
48806;DHT22;34625;47.176;27.548;2022-08-21T09:14:22;28.30;60.90
48806;DHT22;34625;47.176;27.548;2022-08-21T09:16:56;28.30;61.00
48806;DHT22;34625;47.176;27.548;2022-08-21T09:27:30;28.40;61.00
48806;DHT22;34625;47.176;27.548;2022-08-21T09:29:57;28.40;61.00
48806;DHT22;34625;47.176;27.548;2022-08-21T09:32:27;28.40;61.00
48806;DHT22;34625;47.176;27.548;2022-08-21T09:34:59;28.40;61.00
48806;DHT22;34625;47.176;27.548;2022-08-21T09:37:27;28.50;61.00
48806;DHT22;34625;47.176;27.548;2022-08-21T09:39:55;28.50;61.00
48806;DHT22;34625;47.176;27.548;2022-08-21T09:42:30;28.50;61.00
48806;DHT22;34625;47.176;27.548;2022-08-21T09:45:14;28.60;61.00
48806;DHT22;34625;47.176;27.548;2022-08-21T09:47:41;28.40;61.00
48806;DHT22;34625;47.176;27.548;2022-08-21T09:50:15;28.60;60.90
48806;DHT22;34625;47.176;27.548;2022-08-21T09:52:49;28.50;60.90
48806;DHT22;34625;47.176;27.548;2022-08-21T09:55:25;28.50;60.30
48806;DHT22;34625;47.176;27.548;2022-08-21T09:58:11;28.50;60.90
48806;DHT22;34625;47.176;27.548;2022-08-21T10:00:37;28.50;60.90
48806;DHT22;34625;47.176;27.548;2022-08-21T10:03:18;28.40;60.90
48806;DHT22;34625;47.176;27.548;2022-08-21T10:06:19;28.50;60.90
48806;DHT22;34625;47.176;27.548;2022-08-21T10:08:46;28.50;61.00
48806;DHT22;34625;47.176;27.548;2022-08-21T10:11:15;28.40;60.80
48806;DHT22;34625;47.176;27.548;2022-08-21T10:19:38;28.40;60.90
48806;DHT22;34625;47.176;27.548;2022-08-21T10:25:07;28.30;60.90
48806;DHT22;34625;47.176;27.548;2022-08-21T10:33:15;28.30;61.00
48806;DHT22;34625;47.176;27.548;2022-08-21T10:36:12;28.30;61.00
48806;DHT22;34625;47.176;27.548;2022-08-21T10:52:42;28.50;61.20
48806;DHT22;34625;47.176;27.548;2022-08-21T10:55:19;28.30;61.20
48806;DHT22;34625;47.176;27.548;2022-08-21T11:00:19;28.30;61.20
48806;DHT22;34625;47.176;27.548;2022-08-21T11:05:35;28.40;61.20
48806;DHT22;34625;47.176;27.548;2022-08-21T11:08:26;28.50;61.20
48806;DHT22;34625;47.176;27.548;2022-08-21T11:11:20;28.50;61.20
48806;DHT22;34625;47.176;27.548;2022-08-21T11:13:58;28.50;61.10
48806;DHT22;34625;47.176;27.548;2022-08-21T11:16:38;28.50;61.10
48806;DHT22;34625;47.176;27.548;2022-08-21T11:21:45;28.60;61.10
48806;DHT22;34625;47.176;27.548;2022-08-21T11:24:35;28.60;61.10
48806;DHT22;34625;47.176;27.548;2022-08-21T11:29:54;28.70;61.00
48806;DHT22;34625;47.176;27.548;2022-08-21T11:38:46;28.50;61.00
48806;DHT22;34625;47.176;27.548;2022-08-21T11:41:30;28.70;60.90
48806;DHT22;34625;47.176;27.548;2022-08-21T11:44:09;28.60;60.90
48806;DHT22;34625;47.176;27.548;2022-08-21T12:00:47;28.80;60.60
48806;DHT22;34625;47.176;27.548;2022-08-21T12:03:26;28.60;60.60
48806;DHT22;34625;47.176;27.548;2022-08-21T12:05:59;28.70;60.60
48806;DHT22;34625;47.176;27.548;2022-08-21T12:08:38;28.90;60.60
48806;DHT22;34625;47.176;27.548;2022-08-21T12:19:10;28.80;60.30
48806;DHT22;34625;47.176;27.548;2022-08-21T12:26:59;28.70;60.40
48806;DHT22;34625;47.176;27.548;2022-08-21T12:29:31;28.80;60.40
48806;DHT22;34625;47.176;27.548;2022-08-21T12:34:50;28.80;60.40
48806;DHT22;34625;47.176;27.548;2022-08-21T12:37:34;28.70;60.30
48806;DHT22;34625;47.176;27.548;2022-08-21T12:40:04;28.80;60.30
48806;DHT22;34625;47.176;27.548;2022-08-21T12:42:43;28.80;60.40
48806;DHT22;34625;47.176;27.548;2022-08-21T12:45:30;28.80;60.40
48806;DHT22;34625;47.176;27.548;2022-08-21T12:50:49;28.80;60.40
48806;DHT22;34625;47.176;27.548;2022-08-21T12:55:57;28.80;60.30
48806;DHT22;34625;47.176;27.548;2022-08-21T12:58:27;28.80;60.40
48806;DHT22;34625;47.176;27.548;2022-08-21T13:01:04;28.80;60.40
48806;DHT22;34625;47.176;27.548;2022-08-21T13:03:31;28.80;60.40
48806;DHT22;34625;47.176;27.548;2022-08-21T13:06:00;28.80;60.30
48806;DHT22;34625;47.176;27.548;2022-08-21T13:08:27;28.80;60.30
48806;DHT22;34625;47.176;27.548;2022-08-21T13:11:00;28.80;60.30
48806;DHT22;34625;47.176;27.548;2022-08-21T13:13:28;28.80;60.30
48806;DHT22;34625;47.176;27.548;2022-08-21T13:16:00;28.80;60.30
48806;DHT22;34625;47.176;27.548;2022-08-21T13:18:30;28.80;60.20
48806;DHT22;34625;47.176;27.548;2022-08-21T13:21:14;28.80;60.20
48806;DHT22;34625;47.176;27.548;2022-08-21T13:23:41;28.90;60.20
48806;DHT22;34625;47.176;27.548;2022-08-21T13:26:19;28.80;60.20
48806;DHT22;34625;47.176;27.548;2022-08-21T13:28:46;28.70;59.90
48806;DHT22;34625;47.176;27.548;2022-08-21T13:31:18;28.80;60.10
48806;DHT22;34625;47.176;27.548;2022-08-21T13:33:44;28.70;60.20
48806;DHT22;34625;47.176;27.548;2022-08-21T13:36:24;28.70;60.30
48806;DHT22;34625;47.176;27.548;2022-08-21T13:38:52;28.70;60.30
48806;DHT22;34625;47.176;27.548;2022-08-21T13:41:21;28.80;60.40
48806;DHT22;34625;47.176;27.548;2022-08-21T13:43:59;28.70;60.40
48806;DHT22;34625;47.176;27.548;2022-08-21T13:46:29;28.70;60.40
48806;DHT22;34625;47.176;27.548;2022-08-21T13:48:56;28.80;60.40
48806;DHT22;34625;47.176;27.548;2022-08-21T13:51:24;28.90;60.40
48806;DHT22;34625;47.176;27.548;2022-08-21T13:53:52;28.60;60.40
48806;DHT22;34625;47.176;27.548;2022-08-21T13:56:26;28.80;60.40
48806;DHT22;34625;47.176;27.548;2022-08-21T13:58:53;28.90;60.40
48806;DHT22;34625;47.176;27.548;2022-08-21T14:01:30;28.70;60.40
48806;DHT22;34625;47.176;27.548;2022-08-21T14:04:06;28.80;60.40
48806;DHT22;34625;47.176;27.548;2022-08-21T14:06:35;28.80;60.40
48806;DHT22;34625;47.176;27.548;2022-08-21T14:09:31;28.80;60.50
48806;DHT22;34625;47.176;27.548;2022-08-21T14:11:55;28.80;60.40
48806;DHT22;34625;47.176;27.548;2022-08-21T14:14:22;28.70;60.50
48806;DHT22;34625;47.176;27.548;2022-08-21T14:17:02;28.80;60.40
48806;DHT22;34625;47.176;27.548;2022-08-21T14:19:41;28.90;60.40
48806;DHT22;34625;47.176;27.548;2022-08-21T14:25:11;28.90;60.40
48806;DHT22;34625;47.176;27.548;2022-08-21T14:30:27;28.70;60.40
48806;DHT22;34625;47.176;27.548;2022-08-21T14:32:54;28.90;60.50
48806;DHT22;34625;47.176;27.548;2022-08-21T14:35:20;28.80;60.50
48806;DHT22;34625;47.176;27.548;2022-08-21T14:37:48;28.70;60.50
48806;DHT22;34625;47.176;27.548;2022-08-21T14:40:18;28.80;60.50
48806;DHT22;34625;47.176;27.548;2022-08-21T14:42:45;28.70;60.50
48806;DHT22;34625;47.176;27.548;2022-08-21T14:45:28;28.60;60.50
48806;DHT22;34625;47.176;27.548;2022-08-21T14:47:55;28.60;60.60
48806;DHT22;34625;47.176;27.548;2022-08-21T14:50:21;28.80;60.60
48806;DHT22;34625;47.176;27.548;2022-08-21T14:52:48;28.60;60.60
48806;DHT22;34625;47.176;27.548;2022-08-21T14:55:15;28.70;60.60
48806;DHT22;34625;47.176;27.548;2022-08-21T14:57:47;28.70;60.70
48806;DHT22;34625;47.176;27.548;2022-08-21T15:00:16;28.60;60.30
48806;DHT22;34625;47.176;27.548;2022-08-21T15:02:43;28.70;60.70
48806;DHT22;34625;47.176;27.548;2022-08-21T15:05:09;28.60;60.70
48806;DHT22;34625;47.176;27.548;2022-08-21T15:07:36;28.70;60.70
48806;DHT22;34625;47.176;27.548;2022-08-21T15:10:02;28.60;60.70
48806;DHT22;34625;47.176;27.548;2022-08-21T15:12:29;28.80;60.70
48806;DHT22;34625;47.176;27.548;2022-08-21T15:14:55;28.80;60.70
48806;DHT22;34625;47.176;27.548;2022-08-21T15:17:21;28.70;60.70
48806;DHT22;34625;47.176;27.548;2022-08-21T15:19:47;28.70;60.70
48806;DHT22;34625;47.176;27.548;2022-08-21T15:22:14;28.70;60.70
48806;DHT22;34625;47.176;27.548;2022-08-21T15:24:40;28.70;60.70
48806;DHT22;34625;47.176;27.548;2022-08-21T15:27:07;28.70;60.60
48806;DHT22;34625;47.176;27.548;2022-08-21T15:29:33;28.90;60.60
48806;DHT22;34625;47.176;27.548;2022-08-21T15:34:41;28.90;60.60
48806;DHT22;34625;47.176;27.548;2022-08-21T15:37:07;28.80;60.70
48806;DHT22;34625;47.176;27.548;2022-08-21T15:39:34;28.70;60.60
48806;DHT22;34625;47.176;27.548;2022-08-21T15:42:01;28.70;60.70
48806;DHT22;34625;47.176;27.548;2022-08-21T15:44:28;28.70;60.70
48806;DHT22;34625;47.176;27.548;2022-08-21T15:46:55;28.60;60.70
48806;DHT22;34625;47.176;27.548;2022-08-21T15:49:22;28.60;60.70
48806;DHT22;34625;47.176;27.548;2022-08-21T15:51:50;28.60;60.70
48806;DHT22;34625;47.176;27.548;2022-08-21T15:54:16;28.60;60.70
48806;DHT22;34625;47.176;27.548;2022-08-21T15:56:44;28.70;60.70
48806;DHT22;34625;47.176;27.548;2022-08-21T15:59:21;28.60;60.80
48806;DHT22;34625;47.176;27.548;2022-08-21T16:01:49;28.70;60.80
48806;DHT22;34625;47.176;27.548;2022-08-21T16:04:23;28.60;60.80
48806;DHT22;34625;47.176;27.548;2022-08-21T16:06:50;28.70;60.80
48806;DHT22;34625;47.176;27.548;2022-08-21T16:09:16;28.80;60.80
48806;DHT22;34625;47.176;27.548;2022-08-21T16:11:43;28.60;60.80
48806;DHT22;34625;47.176;27.548;2022-08-21T16:14:14;28.70;60.80
48806;DHT22;34625;47.176;27.548;2022-08-21T16:16:41;28.70;60.80
48806;DHT22;34625;47.176;27.548;2022-08-21T16:19:09;28.70;60.80
48806;DHT22;34625;47.176;27.548;2022-08-21T16:21:36;28.70;60.80
48806;DHT22;34625;47.176;27.548;2022-08-21T16:24:02;28.80;60.80
48806;DHT22;34625;47.176;27.548;2022-08-21T16:26:29;28.80;60.80
48806;DHT22;34625;47.176;27.548;2022-08-21T16:28:56;28.80;60.80
48806;DHT22;34625;47.176;27.548;2022-08-21T16:31:24;28.60;60.80
48806;DHT22;34625;47.176;27.548;2022-08-21T16:33:52;28.60;60.80
48806;DHT22;34625;47.176;27.548;2022-08-21T16:36:20;28.70;60.80
48806;DHT22;34625;47.176;27.548;2022-08-21T16:38:47;28.70;60.80
48806;DHT22;34625;47.176;27.548;2022-08-21T16:41:16;28.70;60.70
48806;DHT22;34625;47.176;27.548;2022-08-21T16:43:43;28.70;60.70
48806;DHT22;34625;47.176;27.548;2022-08-21T16:46:12;28.80;60.80
48806;DHT22;34625;47.176;27.548;2022-08-21T16:48:39;28.80;60.80
48806;DHT22;34625;47.176;27.548;2022-08-21T16:51:06;28.60;60.80
48806;DHT22;34625;47.176;27.548;2022-08-21T16:53:32;28.70;60.80
48806;DHT22;34625;47.176;27.548;2022-08-21T16:55:58;28.60;60.80
48806;DHT22;34625;47.176;27.548;2022-08-21T16:58:36;28.70;60.80
48806;DHT22;34625;47.176;27.548;2022-08-21T17:01:05;28.60;60.80
48806;DHT22;34625;47.176;27.548;2022-08-21T17:03:37;28.60;60.80
48806;DHT22;34625;47.176;27.548;2022-08-21T17:06:05;28.60;60.80
48806;DHT22;34625;47.176;27.548;2022-08-21T17:08:32;28.70;60.90
48806;DHT22;34625;47.176;27.548;2022-08-21T17:10:59;28.70;60.90
48806;DHT22;34625;47.176;27.548;2022-08-21T17:13:25;28.60;60.90